createdAt,value
2022-12-29T00:02:25.295Z,2.91
2022-12-29T00:07:21.240Z,2.70
2022-12-29T00:12:15.898Z,2.81
2022-12-29T00:17:09.549Z,2.38
2022-12-29T00:22:20.118Z,2.45
2022-12-29T00:27:33.063Z,1.88
2022-12-29T00:32:43.952Z,2.42
2022-12-29T00:37:55.302Z,2.38
2022-12-29T00:43:07.539Z,1.74
2022-12-29T00:48:00.843Z,2.28
2022-12-29T00:52:56.849Z,2.26
2022-12-29T00:57:51.493Z,1.77
2022-12-29T01:02:44.891Z,2.03
2022-12-29T01:07:38.232Z,1.88
2022-12-29T01:12:43.052Z,2.19
2022-12-29T01:17:41.451Z,2.07
2022-12-29T01:22:34.690Z,1.61
2022-12-29T01:27:28.407Z,1.92
2022-12-29T01:32:21.615Z,2.06
2022-12-29T01:37:16.262Z,2.03
2022-12-29T01:42:18.483Z,1.88
2022-12-29T01:47:12.163Z,1.54
2022-12-29T01:52:09.012Z,1.47
2022-12-29T01:57:08.996Z,0.66
2022-12-29T02:02:02.790Z,1.55
2022-12-29T02:06:59.438Z,1.22
2022-12-29T02:11:53.205Z,1.31
2022-12-29T02:17:04.323Z,1.25
2022-12-29T02:22:09.876Z,1.25
2022-12-29T02:27:21.930Z,1.17
2022-12-29T02:32:27.339Z,1.02
2022-12-29T02:37:27.675Z,1.10
2022-12-29T02:42:29.237Z,1.02
2022-12-29T02:47:33.325Z,0.89
2022-12-29T02:52:32.549Z,0.78
2022-12-29T02:57:34.482Z,0.41
2022-12-29T03:02:41.836Z,0.63
2022-12-29T03:07:43.505Z,0.05
2022-12-29T03:13:03.111Z,0.48
2022-12-29T03:18:02.385Z,0.25
2022-12-29T03:23:01.723Z,0.42
2022-12-29T03:28:00.915Z,0.45
2022-12-29T03:33:00.963Z,0.18
2022-12-29T03:38:03.213Z,0.43
2022-12-29T03:42:57.496Z,0.52
2022-12-29T03:47:51.017Z,0.46
2022-12-29T03:52:46.803Z,0.47
2022-12-29T03:57:40.238Z,0.40
2022-12-29T04:02:35.972Z,0.32
2022-12-29T04:07:29.847Z,0.54
2022-12-29T04:12:25.696Z,0.52
2022-12-29T04:17:19.081Z,0.43
2022-12-29T04:22:14.910Z,0.51
2022-12-29T04:27:08.309Z,-0.10
2022-12-29T04:32:17.167Z,0.10
2022-12-29T04:37:15.780Z,0.33
2022-12-29T04:42:09.098Z,0.33
2022-12-29T04:47:02.381Z,0.11
2022-12-29T04:52:09.443Z,0.41
2022-12-29T04:57:04.091Z,-0.13
2022-12-29T05:01:57.820Z,0.44
2022-12-29T05:06:51.220Z,0.49
2022-12-29T05:11:46.326Z,0.25
2022-12-29T05:16:39.854Z,0.34
2022-12-29T05:21:33.115Z,0.21
2022-12-29T05:26:27.418Z,-0.17
2022-12-29T05:31:37.235Z,-0.05
2022-12-29T05:36:37.460Z,-0.12
2022-12-29T05:41:31.623Z,-0.18
2022-12-29T05:46:58.324Z,0.17
2022-12-29T05:52:15.627Z,0.06
2022-12-29T05:57:09.105Z,0.28
2022-12-29T06:02:04.725Z,-0.15
2022-12-29T06:06:58.422Z,0.15
2022-12-29T06:12:02.147Z,0.10
2022-12-29T06:16:56.286Z,-0.99
2022-12-29T06:21:53.603Z,-0.20
2022-12-29T06:26:47.282Z,0.04
2022-12-29T06:31:40.651Z,0.04
2022-12-29T06:36:34.012Z,-0.24
2022-12-29T06:41:32.375Z,0.11
2022-12-29T06:46:42.993Z,0.03
2022-12-29T06:51:39.230Z,0.24
2022-12-29T06:56:33.835Z,0.32
2022-12-29T07:01:29.385Z,0.42
2022-12-29T07:06:23.552Z,0.30
2022-12-29T07:11:16.985Z,0.51
2022-12-29T07:16:14.525Z,-0.34
2022-12-29T07:21:07.873Z,0.79
2022-12-29T07:26:05.414Z,0.66
2022-12-29T07:30:58.737Z,0.82
2022-12-29T07:35:53.689Z,0.92
2022-12-29T07:40:48.912Z,1.01
2022-12-29T07:45:42.180Z,1.03
2022-12-29T07:50:35.871Z,1.48
2022-12-29T07:55:30.646Z,1.22
2022-12-29T08:00:24.440Z,1.97
2022-12-29T08:05:18.757Z,2.08
2022-12-29T08:10:15.876Z,2.31
2022-12-29T08:15:12.480Z,2.09
2022-12-29T08:20:07.059Z,2.75
2022-12-29T08:25:00.326Z,3.03
2022-12-29T08:29:53.729Z,3.33
2022-12-29T08:34:48.502Z,3.16
2022-12-29T08:39:41.708Z,3.51
2022-12-29T08:44:34.891Z,4.02
2022-12-29T08:49:28.268Z,4.29
2022-12-29T08:54:23.048Z,4.79
2022-12-29T08:59:16.364Z,4.77
2022-12-29T09:04:15.524Z,4.97
2022-12-29T09:09:10.638Z,5.53
2022-12-29T09:14:05.907Z,6.31
2022-12-29T09:18:59.361Z,7.30
2022-12-29T09:23:53.073Z,7.83
2022-12-29T09:28:48.890Z,8.48
2022-12-29T09:33:43.616Z,9.86
2022-12-29T09:38:37.060Z,10.35
2022-12-29T09:43:49.394Z,10.98
2022-12-29T09:48:49.529Z,11.24
2022-12-29T09:53:48.252Z,11.12
2022-12-29T09:58:49.101Z,10.50
2022-12-29T10:03:56.907Z,10.00
2022-12-29T10:08:55.165Z,10.42
2022-12-29T10:14:03.069Z,10.36
2022-12-29T10:19:20.289Z,10.58
2022-12-29T10:24:15.151Z,10.44
2022-12-29T10:29:13.801Z,10.51
2022-12-29T10:34:20.843Z,10.68
2022-12-29T10:39:18.949Z,11.77
2022-12-29T10:44:17.152Z,11.62
2022-12-29T10:49:22.214Z,12.24
2022-12-29T10:54:23.960Z,11.90
2022-12-29T10:59:22.843Z,12.35
2022-12-29T11:04:32.951Z,12.49
2022-12-29T11:09:41.928Z,12.93
2022-12-29T11:14:36.771Z,12.58
2022-12-29T11:19:40.743Z,12.40
2022-12-29T11:24:34.348Z,12.49
2022-12-29T11:29:30.309Z,12.60
2022-12-29T11:34:26.882Z,12.62
2022-12-29T11:39:37.054Z,12.72
2022-12-29T11:44:42.311Z,12.09
2022-12-29T11:49:35.635Z,11.37
2022-12-29T11:54:35.649Z,10.50
2022-12-29T11:59:56.127Z,10.47
2022-12-29T12:04:53.435Z,10.18
2022-12-29T12:09:59.069Z,9.89
2022-12-29T12:15:00.521Z,9.74
2022-12-29T12:20:20.368Z,9.64
2022-12-29T12:25:20.327Z,9.54
2022-12-29T12:30:19.802Z,9.43
2022-12-29T12:35:21.347Z,9.44
2022-12-29T12:41:00.267Z,8.88
2022-12-29T12:46:22.727Z,9.42
2022-12-29T12:51:23.058Z,9.23
2022-12-29T12:56:39.122Z,8.91
2022-12-29T13:01:41.329Z,8.63
2022-12-29T13:06:42.576Z,9.33
2022-12-29T13:11:55.506Z,9.06
2022-12-29T13:16:56.369Z,8.86
2022-12-29T13:22:06.989Z,9.11
2022-12-29T13:27:11.803Z,9.31
2022-12-29T13:32:24.289Z,9.29
2022-12-29T13:37:21.118Z,8.69
2022-12-29T13:42:16.369Z,9.16
2022-12-29T13:47:26.777Z,9.08
2022-12-29T13:52:30.730Z,9.04
2022-12-29T13:57:37.345Z,8.80
2022-12-29T14:02:44.944Z,8.75
2022-12-29T14:07:44.020Z,8.56
2022-12-29T14:12:42.242Z,8.77
2022-12-29T14:17:37.433Z,8.58
2022-12-29T14:22:33.499Z,8.38
2022-12-29T14:27:54.516Z,8.15
2022-12-29T14:33:04.315Z,7.86
2022-12-29T14:38:17.037Z,7.77
2022-12-29T14:43:20.955Z,8.00
2022-12-29T14:48:47.420Z,7.87
2022-12-29T14:53:47.115Z,7.68
2022-12-29T14:58:48.701Z,7.75
2022-12-29T15:03:47.829Z,7.32
2022-12-29T15:08:48.899Z,7.29
2022-12-29T15:13:45.382Z,6.45
2022-12-29T15:18:40.415Z,7.21
2022-12-29T15:23:43.853Z,6.09
2022-12-29T15:28:44.610Z,6.45
2022-12-29T15:33:42.599Z,6.79
2022-12-29T15:38:42.275Z,5.97
2022-12-29T15:44:00.383Z,5.40
2022-12-29T15:48:53.675Z,6.41
2022-12-29T15:53:52.551Z,4.74
2022-12-29T15:58:48.710Z,5.69
2022-12-29T16:03:44.158Z,6.14
2022-12-29T16:08:42.202Z,5.82
2022-12-29T16:13:47.306Z,5.18
2022-12-29T16:18:40.690Z,5.94
2022-12-29T16:23:41.533Z,5.22
2022-12-29T16:28:43.224Z,5.20
2022-12-29T16:33:42.496Z,5.65
2022-12-29T16:38:37.244Z,4.55
2022-12-29T16:43:35.371Z,5.48
2022-12-29T16:48:30.488Z,5.22
2022-12-29T16:53:28.352Z,5.02
2022-12-29T16:58:26.513Z,4.99
2022-12-29T17:03:20.000Z,5.10
2022-12-29T17:08:24.038Z,4.72
2022-12-29T17:13:17.562Z,5.01
2022-12-29T17:18:14.046Z,4.98
2022-12-29T17:23:19.884Z,5.25
2022-12-29T17:28:23.413Z,5.17
2022-12-29T17:33:20.254Z,4.92
2022-12-29T17:38:29.153Z,4.69
2022-12-29T17:43:22.559Z,4.75
2022-12-29T17:48:19.726Z,4.58
2022-12-29T17:53:17.672Z,4.23
2022-12-29T17:58:18.402Z,4.39
2022-12-29T18:03:16.432Z,3.94
2022-12-29T18:08:13.454Z,4.45
2022-12-29T18:13:11.714Z,4.40
2022-12-29T18:18:12.299Z,4.41
2022-12-29T18:23:06.170Z,3.53
2022-12-29T18:28:00.933Z,4.24
2022-12-29T18:33:00.297Z,4.07
2022-12-29T18:37:53.641Z,4.14
2022-12-29T18:42:47.216Z,4.10
2022-12-29T18:47:41.873Z,4.05
2022-12-29T18:52:35.253Z,4.03
2022-12-29T18:57:30.734Z,3.97
2022-12-29T19:02:25.838Z,3.89
2022-12-29T19:07:20.456Z,3.85
2022-12-29T19:12:16.955Z,3.68
2022-12-29T19:17:12.473Z,3.33
2022-12-29T19:22:05.721Z,3.66
2022-12-29T19:27:01.479Z,3.14
2022-12-29T19:31:55.766Z,3.48
2022-12-29T19:36:49.130Z,3.37
2022-12-29T19:41:45.293Z,3.32
2022-12-29T19:46:40.049Z,3.53
2022-12-29T19:51:33.666Z,3.47
2022-12-29T19:56:26.954Z,3.39
2022-12-29T20:01:24.209Z,3.08
2022-12-29T20:06:19.944Z,2.88
2022-12-29T20:11:15.563Z,3.00
2022-12-29T20:16:13.122Z,2.91
2022-12-29T20:21:07.754Z,2.76
2022-12-29T20:26:03.073Z,2.83
2022-12-29T20:30:59.377Z,2.01
2022-12-29T20:35:52.963Z,2.76
2022-12-29T20:40:47.673Z,1.78
2022-12-29T20:45:45.252Z,2.68
2022-12-29T20:50:40.954Z,2.64
2022-12-29T20:55:40.918Z,2.14
2022-12-29T21:00:37.616Z,2.62
2022-12-29T21:05:34.836Z,2.55
2022-12-29T21:10:28.261Z,2.68
2022-12-29T21:15:34.655Z,2.38
2022-12-29T21:20:39.795Z,1.99
2022-12-29T21:25:38.039Z,2.44
2022-12-29T21:30:33.049Z,2.39
2022-12-29T21:35:26.708Z,2.48
2022-12-29T21:40:35.672Z,2.17
2022-12-29T21:45:31.055Z,2.42
2022-12-29T21:50:24.290Z,2.11
2022-12-29T21:55:17.576Z,2.11
2022-12-29T22:00:31.125Z,1.69
2022-12-29T22:05:43.225Z,2.02
2022-12-29T22:10:58.415Z,2.29
2022-12-29T22:15:53.148Z,2.53
2022-12-29T22:20:46.548Z,1.98
2022-12-29T22:25:43.674Z,2.59
2022-12-29T22:30:37.486Z,2.73
2022-12-29T22:35:32.292Z,2.99
2022-12-29T22:40:25.826Z,2.70
2022-12-29T22:45:19.329Z,2.70
2022-12-29T22:50:15.749Z,2.41
2022-12-29T22:55:10.996Z,1.89
2022-12-29T23:00:06.174Z,2.35
2022-12-29T23:05:03.574Z,2.28
2022-12-29T23:09:57.536Z,2.26
2022-12-29T23:14:52.772Z,2.57
2022-12-29T23:19:46.049Z,2.55
2022-12-29T23:24:39.363Z,2.24
2022-12-29T23:29:32.725Z,2.31
2022-12-29T23:34:27.638Z,2.26
2022-12-29T23:39:24.512Z,2.61
2022-12-29T23:44:17.787Z,2.44
2022-12-29T23:49:11.172Z,2.48
2022-12-29T23:54:06.443Z,2.29
2022-12-29T23:58:59.669Z,2.32
